Aérodrome :
LOGIN :

S'inscrire | Disclaimer

   EN    FR    IT 

 










Légende :    VFR   VFR Marginal   IFR   IFR Intensif   IFR Très Intensif
Visi : 
Plafond : 
>= 8 km
>= 3000ft
5 à 8 km
1000 à 3000 ft
1500m à 5 km
500 à 1000 ft
800 à 1500m
200 à 500 ft
< 800m
< 200 ft
Symboles :   Orages  Brouillard  Fortes neiges  Fortes précipitations  Vent > 20 kt
SIGMETs :   Divers  Orages  Givrage  Turbulence  Onde Orograph.  Cendres Volcan.






- Altitude de l'aérodrome : 82 ft
- Code IATA : QIE


LFMI - Istres

DERNIER METAR :
  • 011630Z AUTO 35014KT 9999 FEW007 BKN016 OVC027 09/08 Q0995 TEMPO 2000 DZRA BKN003 BECMG VRB03KT

METARs EXPIRÉS :
  • 011600Z AUTO 34014KT 5000 -RA BR BKN010 BKN014 OVC019 09/09 Q0995 TEMPO 2000 DZRA BKN003 BECMG VRB03KT
  • 011530Z AUTO 34013KT 7000 -DZ BKN006 OVC010 10/09 Q0994 TEMPO 2000 DZRA BKN003 BECMG VRB03KT
  • 011500Z AUTO 30008KT 4000 BR OVC003 13/12 Q0994 TEMPO 2000 DZRA
  • 011430Z AUTO 34003KT 3400 -RADZ BR OVC003 13/13 Q0994 TEMPO RA BECMG BKN008 OVC012
  • 011400Z AUTO 30002KT 3500 BR OVC005 13/12 Q0994 TEMPO RA
  • 011330Z AUTO 26001KT 2100 -RA BR BKN003 OVC007 13/12 Q0994 TEMPO 4000 RA BECMG BKN008 OVC012
  • 011300Z AUTO VRB03KT 1800 -RA BR BKN003/// OVC014/// //////TCU 13/13 Q0994 TEMPO 4000 RA BECMG BKN008 OVC012
  • 011230Z AUTO 12001KT 1800 1400 R15/2000U R33/2700D -DZ BR BKN007 OVC013 13/12 Q0995 TEMPO 4000 RA

TAF AMD TAF LFMI
Valide du 01 à 17h jusqu'au 02 à 15h UTC


011705Z 0117/0215 34015KT 9999 BKN020 TX09/0214Z TN03/0205Z
PROB30
TEMPO 0117/0120 4000 RA BKN014
BECMG 0117/0119 34015G25KT CAVOK
TEMPO 0202/0215 33025G35KT



MET'MAP, la Météo Aéronautique d'un coup d'oeil ! - Copyright ORBIFLY Décembre 2007 - Disclaimer

ORBIFLY MET'MAP TEAM :

Programmation & Développement : Alexandra Zaïnal
Sur une idée originale de : Baudouin d'Aumeries
Soutien technique & logistique : Manuel Goepfert
Assistance : Marc-Olivier Méhu




SOURCES & CREDITS :

   NOAA